If you wish to contribute or participate in the discussions about articles you are invited to join SKYbrary as a registered user

 Actions

Ain el Beida Airport

From SKYbrary Wiki

DAUU
Airport
ICAO: DAUU – IATA: OGX
Summary
Name Ain el Beida Airport
Region Africa
Territory Algeria DZ.gif
Location , Ouargla
Serving Ouargla
Elevation 149.962 m
492 ft
492 ft149.962 m
Type medium airport
Coordinates 31° 55' 2.0028", 5° 24' 46.0008"
Runways
Designator Length Width Surface ROPS
2/20 3000 m9,842.52 ft 45 m147.638 ft ASP /
18/36 3100 m10,170.604 ft 45 m147.638 ft ASP /
METAR
Observation DAUU 130600Z 00000KT CAVOK 07/01 Q1022
Station Ouargla
Date/Time 13 December 2017 06:00:00
Wind direction
Wind speed 00 kts
Lowest cloud amount clouds and visibility OK
Temperature 7°C
Dew point 1°C
Humidity 65%
QNH 1022 hPa
Weather condition n/a